sensor_id;sensor_type;location;lat;lon;timestamp;P1;durP1;ratioP1;P2;durP2;ratioP2
57317;SDS011;43157;50.982;18.132;2023-07-13T00:00:37;9.20;;;4.60;;
57317;SDS011;43157;50.982;18.132;2023-07-13T00:03:03;10.20;;;4.40;;
57317;SDS011;43157;50.982;18.132;2023-07-13T00:05:29;11.90;;;4.30;;
57317;SDS011;43157;50.982;18.132;2023-07-13T00:07:55;10.60;;;4.40;;
57317;SDS011;43157;50.982;18.132;2023-07-13T00:10:21;11.20;;;5.00;;
57317;SDS011;43157;50.982;18.132;2023-07-13T00:12:47;13.40;;;4.70;;
57317;SDS011;43157;50.982;18.132;2023-07-13T00:15:14;12.80;;;4.60;;
57317;SDS011;43157;50.982;18.132;2023-07-13T00:17:48;10.60;;;4.40;;
57317;SDS011;43157;50.982;18.132;2023-07-13T00:20:15;11.20;;;4.20;;
57317;SDS011;43157;50.982;18.132;2023-07-13T00:22:41;13.10;;;5.00;;
57317;SDS011;43157;50.982;18.132;2023-07-13T00:25:08;11.40;;;4.70;;
57317;SDS011;43157;50.982;18.132;2023-07-13T00:27:36;11.60;;;4.40;;
57317;SDS011;43157;50.982;18.132;2023-07-13T00:30:02;11.60;;;4.70;;
57317;SDS011;43157;50.982;18.132;2023-07-13T00:32:27;12.80;;;5.10;;
57317;SDS011;43157;50.982;18.132;2023-07-13T00:34:54;10.60;;;4.30;;
57317;SDS011;43157;50.982;18.132;2023-07-13T00:37:19;9.80;;;4.70;;
57317;SDS011;43157;50.982;18.132;2023-07-13T00:39:46;12.60;;;4.60;;
57317;SDS011;43157;50.982;18.132;2023-07-13T00:42:11;12.50;;;4.90;;
57317;SDS011;43157;50.982;18.132;2023-07-13T00:44:37;11.30;;;4.80;;
57317;SDS011;43157;50.982;18.132;2023-07-13T00:47:05;12.00;;;4.80;;
57317;SDS011;43157;50.982;18.132;2023-07-13T00:49:32;14.20;;;4.60;;
57317;SDS011;43157;50.982;18.132;2023-07-13T00:52:05;11.60;;;4.40;;
57317;SDS011;43157;50.982;18.132;2023-07-13T00:54:37;13.20;;;5.40;;
57317;SDS011;43157;50.982;18.132;2023-07-13T00:57:09;14.40;;;5.60;;
57317;SDS011;43157;50.982;18.132;2023-07-13T00:59:37;12.40;;;4.90;;
57317;SDS011;43157;50.982;18.132;2023-07-13T01:02:05;10.10;;;4.80;;
57317;SDS011;43157;50.982;18.132;2023-07-13T01:04:31;10.40;;;4.90;;
57317;SDS011;43157;50.982;18.132;2023-07-13T01:06:57;14.10;;;4.50;;
57317;SDS011;43157;50.982;18.132;2023-07-13T01:09:23;14.80;;;5.30;;
57317;SDS011;43157;50.982;18.132;2023-07-13T01:11:49;15.60;;;5.50;;
57317;SDS011;43157;50.982;18.132;2023-07-13T01:14:15;12.50;;;5.10;;
57317;SDS011;43157;50.982;18.132;2023-07-13T01:16:42;8.90;;;4.20;;
57317;SDS011;43157;50.982;18.132;2023-07-13T01:19:17;13.50;;;4.70;;
57317;SDS011;43157;50.982;18.132;2023-07-13T01:22:01;14.00;;;4.80;;
57317;SDS011;43157;50.982;18.132;2023-07-13T01:24:28;13.80;;;5.20;;
57317;SDS011;43157;50.982;18.132;2023-07-13T01:26:54;13.60;;;5.10;;
57317;SDS011;43157;50.982;18.132;2023-07-13T01:29:20;12.70;;;5.30;;
57317;SDS011;43157;50.982;18.132;2023-07-13T01:31:46;13.20;;;5.20;;
57317;SDS011;43157;50.982;18.132;2023-07-13T01:34:12;15.60;;;5.40;;
57317;SDS011;43157;50.982;18.132;2023-07-13T01:36:38;13.20;;;4.30;;
57317;SDS011;43157;50.982;18.132;2023-07-13T01:39:04;11.80;;;4.60;;
57317;SDS011;43157;50.982;18.132;2023-07-13T01:41:30;14.30;;;4.80;;
57317;SDS011;43157;50.982;18.132;2023-07-13T01:43:55;15.70;;;5.30;;
57317;SDS011;43157;50.982;18.132;2023-07-13T01:46:21;13.60;;;5.00;;
57317;SDS011;43157;50.982;18.132;2023-07-13T01:48:46;11.50;;;4.10;;
57317;SDS011;43157;50.982;18.132;2023-07-13T01:51:12;13.40;;;4.90;;
57317;SDS011;43157;50.982;18.132;2023-07-13T01:53:38;17.90;;;5.30;;
57317;SDS011;43157;50.982;18.132;2023-07-13T01:56:04;13.50;;;5.20;;
57317;SDS011;43157;50.982;18.132;2023-07-13T01:58:30;14.70;;;5.40;;
57317;SDS011;43157;50.982;18.132;2023-07-13T02:00:55;17.70;;;6.10;;
57317;SDS011;43157;50.982;18.132;2023-07-13T02:03:21;9.70;;;4.80;;
57317;SDS011;43157;50.982;18.132;2023-07-13T02:05:47;17.20;;;5.60;;
57317;SDS011;43157;50.982;18.132;2023-07-13T02:08:12;14.60;;;5.70;;
57317;SDS011;43157;50.982;18.132;2023-07-13T02:10:38;13.80;;;5.60;;
57317;SDS011;43157;50.982;18.132;2023-07-13T02:13:05;17.10;;;6.70;;
57317;SDS011;43157;50.982;18.132;2023-07-13T02:15:31;12.60;;;5.70;;
57317;SDS011;43157;50.982;18.132;2023-07-13T02:17:57;13.50;;;5.20;;
57317;SDS011;43157;50.982;18.132;2023-07-13T02:20:24;14.40;;;6.10;;
57317;SDS011;43157;50.982;18.132;2023-07-13T02:22:51;14.20;;;5.40;;
57317;SDS011;43157;50.982;18.132;2023-07-13T02:25:17;17.00;;;5.90;;
57317;SDS011;43157;50.982;18.132;2023-07-13T02:27:42;11.10;;;5.10;;
57317;SDS011;43157;50.982;18.132;2023-07-13T02:30:08;13.40;;;5.30;;
57317;SDS011;43157;50.982;18.132;2023-07-13T02:32:35;13.10;;;5.10;;
57317;SDS011;43157;50.982;18.132;2023-07-13T02:35:00;12.10;;;5.10;;
57317;SDS011;43157;50.982;18.132;2023-07-13T02:37:26;11.50;;;5.40;;
57317;SDS011;43157;50.982;18.132;2023-07-13T02:39:52;10.40;;;5.00;;
57317;SDS011;43157;50.982;18.132;2023-07-13T02:42:17;15.40;;;5.70;;
57317;SDS011;43157;50.982;18.132;2023-07-13T02:44:43;17.90;;;5.00;;
57317;SDS011;43157;50.982;18.132;2023-07-13T02:47:08;16.60;;;5.70;;
57317;SDS011;43157;50.982;18.132;2023-07-13T02:49:34;17.20;;;5.10;;
57317;SDS011;43157;50.982;18.132;2023-07-13T02:51:59;12.80;;;5.40;;
57317;SDS011;43157;50.982;18.132;2023-07-13T02:54:25;16.00;;;5.20;;
57317;SDS011;43157;50.982;18.132;2023-07-13T02:56:51;15.30;;;6.00;;
57317;SDS011;43157;50.982;18.132;2023-07-13T02:59:17;13.50;;;6.20;;
57317;SDS011;43157;50.982;18.132;2023-07-13T03:01:42;15.00;;;6.10;;
57317;SDS011;43157;50.982;18.132;2023-07-13T03:04:08;14.60;;;6.50;;
57317;SDS011;43157;50.982;18.132;2023-07-13T03:06:33;15.90;;;6.20;;
57317;SDS011;43157;50.982;18.132;2023-07-13T03:08:59;13.40;;;6.70;;
57317;SDS011;43157;50.982;18.132;2023-07-13T03:11:25;18.80;;;5.90;;
57317;SDS011;43157;50.982;18.132;2023-07-13T03:13:52;14.10;;;5.90;;
57317;SDS011;43157;50.982;18.132;2023-07-13T03:16:17;14.10;;;6.00;;
57317;SDS011;43157;50.982;18.132;2023-07-13T03:18:43;14.90;;;7.30;;
57317;SDS011;43157;50.982;18.132;2023-07-13T03:21:11;14.80;;;5.90;;
57317;SDS011;43157;50.982;18.132;2023-07-13T03:23:37;16.00;;;5.60;;
57317;SDS011;43157;50.982;18.132;2023-07-13T03:26:06;11.40;;;5.40;;
57317;SDS011;43157;50.982;18.132;2023-07-13T03:28:33;12.40;;;5.50;;
57317;SDS011;43157;50.982;18.132;2023-07-13T03:31:00;18.40;;;6.00;;
57317;SDS011;43157;50.982;18.132;2023-07-13T03:33:31;12.90;;;5.40;;
57317;SDS011;43157;50.982;18.132;2023-07-13T03:35:56;14.80;;;5.90;;
57317;SDS011;43157;50.982;18.132;2023-07-13T03:38:22;15.90;;;4.90;;
57317;SDS011;43157;50.982;18.132;2023-07-13T03:40:48;12.90;;;4.60;;
57317;SDS011;43157;50.982;18.132;2023-07-13T03:43:14;12.60;;;5.40;;
57317;SDS011;43157;50.982;18.132;2023-07-13T03:45:39;18.50;;;5.20;;
57317;SDS011;43157;50.982;18.132;2023-07-13T03:48:05;11.60;;;5.50;;
57317;SDS011;43157;50.982;18.132;2023-07-13T03:50:31;13.20;;;4.50;;
57317;SDS011;43157;50.982;18.132;2023-07-13T03:52:57;13.20;;;5.40;;
57317;SDS011;43157;50.982;18.132;2023-07-13T03:55:23;11.90;;;5.50;;
57317;SDS011;43157;50.982;18.132;2023-07-13T03:57:53;13.90;;;5.30;;
57317;SDS011;43157;50.982;18.132;2023-07-13T04:14:00;12.60;;;4.30;;
57317;SDS011;43157;50.982;18.132;2023-07-13T04:16:26;10.30;;;4.50;;
57317;SDS011;43157;50.982;18.132;2023-07-13T04:18:52;13.70;;;5.30;;
57317;SDS011;43157;50.982;18.132;2023-07-13T04:21:20;11.00;;;4.50;;
57317;SDS011;43157;50.982;18.132;2023-07-13T04:23:46;11.40;;;4.70;;
57317;SDS011;43157;50.982;18.132;2023-07-13T04:26:12;9.40;;;4.30;;
57317;SDS011;43157;50.982;18.132;2023-07-13T04:28:38;11.10;;;5.00;;
57317;SDS011;43157;50.982;18.132;2023-07-13T04:31:04;14.60;;;5.50;;
57317;SDS011;43157;50.982;18.132;2023-07-13T04:33:30;13.20;;;5.30;;
57317;SDS011;43157;50.982;18.132;2023-07-13T04:35:55;11.30;;;4.90;;
57317;SDS011;43157;50.982;18.132;2023-07-13T04:38:22;12.00;;;5.00;;
57317;SDS011;43157;50.982;18.132;2023-07-13T04:40:50;11.60;;;5.60;;
57317;SDS011;43157;50.982;18.132;2023-07-13T04:43:16;14.10;;;5.60;;
57317;SDS011;43157;50.982;18.132;2023-07-13T04:45:42;10.90;;;5.10;;
57317;SDS011;43157;50.982;18.132;2023-07-13T04:48:08;12.40;;;5.30;;
57317;SDS011;43157;50.982;18.132;2023-07-13T04:50:36;12.50;;;5.90;;
57317;SDS011;43157;50.982;18.132;2023-07-13T04:53:02;12.10;;;5.70;;
57317;SDS011;43157;50.982;18.132;2023-07-13T04:55:29;11.90;;;6.10;;
57317;SDS011;43157;50.982;18.132;2023-07-13T04:57:56;14.30;;;5.60;;
57317;SDS011;43157;50.982;18.132;2023-07-13T05:00:24;14.20;;;5.80;;
57317;SDS011;43157;50.982;18.132;2023-07-13T05:02:51;14.30;;;6.00;;
57317;SDS011;43157;50.982;18.132;2023-07-13T05:05:17;12.90;;;5.10;;
57317;SDS011;43157;50.982;18.132;2023-07-13T05:07:42;14.10;;;5.30;;
57317;SDS011;43157;50.982;18.132;2023-07-13T05:10:08;11.50;;;5.70;;
57317;SDS011;43157;50.982;18.132;2023-07-13T05:12:34;13.40;;;5.30;;
57317;SDS011;43157;50.982;18.132;2023-07-13T05:15:00;14.60;;;5.70;;
57317;SDS011;43157;50.982;18.132;2023-07-13T05:17:27;12.90;;;6.30;;
57317;SDS011;43157;50.982;18.132;2023-07-13T05:19:52;15.00;;;5.90;;
57317;SDS011;43157;50.982;18.132;2023-07-13T05:22:18;12.80;;;6.00;;
57317;SDS011;43157;50.982;18.132;2023-07-13T05:24:44;15.00;;;5.60;;
57317;SDS011;43157;50.982;18.132;2023-07-13T05:27:09;14.90;;;6.70;;
57317;SDS011;43157;50.982;18.132;2023-07-13T05:29:35;16.50;;;6.70;;
57317;SDS011;43157;50.982;18.132;2023-07-13T05:32:00;13.50;;;6.70;;
57317;SDS011;43157;50.982;18.132;2023-07-13T05:34:26;13.10;;;6.70;;
57317;SDS011;43157;50.982;18.132;2023-07-13T05:36:52;16.30;;;6.80;;
57317;SDS011;43157;50.982;18.132;2023-07-13T05:39:18;18.00;;;7.10;;
57317;SDS011;43157;50.982;18.132;2023-07-13T05:41:44;13.90;;;6.90;;
57317;SDS011;43157;50.982;18.132;2023-07-13T05:44:09;14.90;;;6.90;;
57317;SDS011;43157;50.982;18.132;2023-07-13T05:46:35;15.60;;;6.40;;
57317;SDS011;43157;50.982;18.132;2023-07-13T05:49:00;17.40;;;7.20;;
57317;SDS011;43157;50.982;18.132;2023-07-13T05:51:26;16.70;;;7.00;;
57317;SDS011;43157;50.982;18.132;2023-07-13T05:53:52;15.50;;;7.60;;
57317;SDS011;43157;50.982;18.132;2023-07-13T05:56:17;15.90;;;7.10;;
57317;SDS011;43157;50.982;18.132;2023-07-13T05:58:43;18.10;;;8.00;;
57317;SDS011;43157;50.982;18.132;2023-07-13T06:01:10;15.20;;;7.30;;
57317;SDS011;43157;50.982;18.132;2023-07-13T06:03:37;16.50;;;8.20;;
57317;SDS011;43157;50.982;18.132;2023-07-13T06:06:07;15.10;;;7.80;;
57317;SDS011;43157;50.982;18.132;2023-07-13T06:08:34;14.50;;;7.00;;
57317;SDS011;43157;50.982;18.132;2023-07-13T06:13:33;17.40;;;7.20;;
57317;SDS011;43157;50.982;18.132;2023-07-13T06:15:59;11.80;;;5.90;;
57317;SDS011;43157;50.982;18.132;2023-07-13T06:18:25;11.20;;;5.10;;
57317;SDS011;43157;50.982;18.132;2023-07-13T06:20:51;12.20;;;5.20;;
57317;SDS011;43157;50.982;18.132;2023-07-13T06:23:17;10.80;;;4.30;;
57317;SDS011;43157;50.982;18.132;2023-07-13T06:25:43;12.00;;;3.70;;
57317;SDS011;43157;50.982;18.132;2023-07-13T06:28:09;10.50;;;3.30;;
57317;SDS011;43157;50.982;18.132;2023-07-13T06:30:34;11.00;;;2.70;;
57317;SDS011;43157;50.982;18.132;2023-07-13T06:33:00;8.70;;;2.80;;
57317;SDS011;43157;50.982;18.132;2023-07-13T06:35:28;8.50;;;2.70;;
57317;SDS011;43157;50.982;18.132;2023-07-13T06:37:54;12.70;;;2.70;;
57317;SDS011;43157;50.982;18.132;2023-07-13T06:40:20;7.70;;;2.70;;
57317;SDS011;43157;50.982;18.132;2023-07-13T06:42:46;6.60;;;2.00;;
57317;SDS011;43157;50.982;18.132;2023-07-13T06:45:11;6.30;;;1.80;;
57317;SDS011;43157;50.982;18.132;2023-07-13T06:47:38;6.70;;;1.80;;
57317;SDS011;43157;50.982;18.132;2023-07-13T06:50:04;9.30;;;1.70;;
57317;SDS011;43157;50.982;18.132;2023-07-13T06:52:30;7.40;;;2.00;;
57317;SDS011;43157;50.982;18.132;2023-07-13T06:54:55;5.50;;;1.40;;
57317;SDS011;43157;50.982;18.132;2023-07-13T06:57:21;7.20;;;1.50;;
57317;SDS011;43157;50.982;18.132;2023-07-13T06:59:47;5.10;;;1.50;;
57317;SDS011;43157;50.982;18.132;2023-07-13T07:02:12;5.60;;;1.20;;
57317;SDS011;43157;50.982;18.132;2023-07-13T07:04:38;9.20;;;1.30;;
57317;SDS011;43157;50.982;18.132;2023-07-13T07:07:04;8.30;;;1.20;;
57317;SDS011;43157;50.982;18.132;2023-07-13T07:09:29;5.60;;;1.30;;
57317;SDS011;43157;50.982;18.132;2023-07-13T07:11:57;5.50;;;1.10;;
57317;SDS011;43157;50.982;18.132;2023-07-13T07:14:22;7.30;;;1.50;;
57317;SDS011;43157;50.982;18.132;2023-07-13T07:16:49;4.90;;;1.20;;
57317;SDS011;43157;50.982;18.132;2023-07-13T07:19:15;5.30;;;1.50;;
57317;SDS011;43157;50.982;18.132;2023-07-13T07:21:41;4.00;;;1.10;;
57317;SDS011;43157;50.982;18.132;2023-07-13T07:24:06;5.50;;;1.10;;
57317;SDS011;43157;50.982;18.132;2023-07-13T07:26:32;5.60;;;1.00;;
57317;SDS011;43157;50.982;18.132;2023-07-13T07:28:59;4.20;;;1.20;;
57317;SDS011;43157;50.982;18.132;2023-07-13T07:31:24;6.20;;;1.10;;
57317;SDS011;43157;50.982;18.132;2023-07-13T07:33:50;4.10;;;1.20;;
57317;SDS011;43157;50.982;18.132;2023-07-13T07:36:16;3.40;;;1.00;;
57317;SDS011;43157;50.982;18.132;2023-07-13T07:38:42;5.70;;;1.30;;
57317;SDS011;43157;50.982;18.132;2023-07-13T07:41:09;4.80;;;1.10;;
57317;SDS011;43157;50.982;18.132;2023-07-13T07:43:35;4.30;;;1.20;;
57317;SDS011;43157;50.982;18.132;2023-07-13T07:46:01;5.00;;;1.20;;
57317;SDS011;43157;50.982;18.132;2023-07-13T07:48:26;5.80;;;1.20;;
57317;SDS011;43157;50.982;18.132;2023-07-13T07:50:52;5.90;;;1.30;;
57317;SDS011;43157;50.982;18.132;2023-07-13T07:53:18;3.90;;;0.90;;
57317;SDS011;43157;50.982;18.132;2023-07-13T07:55:44;4.60;;;1.00;;
57317;SDS011;43157;50.982;18.132;2023-07-13T07:58:10;4.40;;;1.10;;
57317;SDS011;43157;50.982;18.132;2023-07-13T08:00:36;3.70;;;1.00;;
57317;SDS011;43157;50.982;18.132;2023-07-13T08:03:02;6.60;;;1.00;;
57317;SDS011;43157;50.982;18.132;2023-07-13T08:05:28;6.20;;;1.20;;
57317;SDS011;43157;50.982;18.132;2023-07-13T08:07:54;7.40;;;1.30;;
57317;SDS011;43157;50.982;18.132;2023-07-13T08:10:20;4.10;;;1.20;;
57317;SDS011;43157;50.982;18.132;2023-07-13T08:12:46;8.10;;;1.50;;
57317;SDS011;43157;50.982;18.132;2023-07-13T08:15:12;6.50;;;1.60;;
57317;SDS011;43157;50.982;18.132;2023-07-13T08:17:39;7.50;;;1.40;;
57317;SDS011;43157;50.982;18.132;2023-07-13T08:20:05;5.60;;;1.50;;
57317;SDS011;43157;50.982;18.132;2023-07-13T08:22:31;7.80;;;1.40;;
57317;SDS011;43157;50.982;18.132;2023-07-13T08:24:58;6.90;;;1.60;;
57317;SDS011;43157;50.982;18.132;2023-07-13T08:27:25;9.50;;;1.30;;
57317;SDS011;43157;50.982;18.132;2023-07-13T08:29:51;7.50;;;1.20;;
57317;SDS011;43157;50.982;18.132;2023-07-13T08:32:18;8.70;;;1.70;;
57317;SDS011;43157;50.982;18.132;2023-07-13T08:34:45;7.80;;;1.60;;
57317;SDS011;43157;50.982;18.132;2023-07-13T08:37:11;7.30;;;1.60;;
57317;SDS011;43157;50.982;18.132;2023-07-13T08:39:36;7.20;;;1.60;;
57317;SDS011;43157;50.982;18.132;2023-07-13T08:42:07;6.10;;;1.50;;
57317;SDS011;43157;50.982;18.132;2023-07-13T08:47:35;10.40;;;1.50;;
57317;SDS011;43157;50.982;18.132;2023-07-13T08:50:03;11.20;;;4.20;;
57317;SDS011;43157;50.982;18.132;2023-07-13T08:54:56;5.70;;;1.60;;
57317;SDS011;43157;50.982;18.132;2023-07-13T08:57:24;13.40;;;5.60;;
57317;SDS011;43157;50.982;18.132;2023-07-13T08:59:57;10.20;;;2.60;;
57317;SDS011;43157;50.982;18.132;2023-07-13T09:02:44;6.60;;;1.50;;
57317;SDS011;43157;50.982;18.132;2023-07-13T09:10:52;7.00;;;1.70;;
57317;SDS011;43157;50.982;18.132;2023-07-13T09:13:21;5.90;;;1.80;;
57317;SDS011;43157;50.982;18.132;2023-07-13T09:15:51;7.00;;;1.50;;
57317;SDS011;43157;50.982;18.132;2023-07-13T09:21:06;4.50;;;1.10;;
57317;SDS011;43157;50.982;18.132;2023-07-13T09:23:38;6.20;;;1.30;;
57317;SDS011;43157;50.982;18.132;2023-07-13T09:26:12;7.20;;;1.80;;
57317;SDS011;43157;50.982;18.132;2023-07-13T09:28:43;6.80;;;1.90;;
57317;SDS011;43157;50.982;18.132;2023-07-13T09:31:11;7.60;;;2.00;;
57317;SDS011;43157;50.982;18.132;2023-07-13T09:33:40;7.80;;;1.90;;
57317;SDS011;43157;50.982;18.132;2023-07-13T09:36:40;7.30;;;2.40;;
57317;SDS011;43157;50.982;18.132;2023-07-13T09:44:15;5.50;;;2.10;;
57317;SDS011;43157;50.982;18.132;2023-07-13T09:46:56;5.60;;;1.50;;
57317;SDS011;43157;50.982;18.132;2023-07-13T09:49:26;6.30;;;1.50;;
57317;SDS011;43157;50.982;18.132;2023-07-13T09:52:00;6.30;;;1.30;;
57317;SDS011;43157;50.982;18.132;2023-07-13T09:54:28;7.90;;;1.40;;
57317;SDS011;43157;50.982;18.132;2023-07-13T09:56:58;6.90;;;1.20;;
57317;SDS011;43157;50.982;18.132;2023-07-13T09:59:32;4.70;;;1.30;;
57317;SDS011;43157;50.982;18.132;2023-07-13T10:01:59;8.60;;;1.90;;
57317;SDS011;43157;50.982;18.132;2023-07-13T10:04:31;6.00;;;1.00;;
57317;SDS011;43157;50.982;18.132;2023-07-13T10:09:36;4.20;;;1.10;;
57317;SDS011;43157;50.982;18.132;2023-07-13T10:12:04;8.30;;;1.40;;
57317;SDS011;43157;50.982;18.132;2023-07-13T10:14:39;7.20;;;1.40;;
57317;SDS011;43157;50.982;18.132;2023-07-13T10:17:08;6.30;;;1.50;;
57317;SDS011;43157;50.982;18.132;2023-07-13T10:19:38;5.30;;;1.50;;
57317;SDS011;43157;50.982;18.132;2023-07-13T10:22:24;5.00;;;1.30;;
57317;SDS011;43157;50.982;18.132;2023-07-13T10:24:54;4.20;;;1.10;;
57317;SDS011;43157;50.982;18.132;2023-07-13T10:27:22;6.70;;;1.40;;
57317;SDS011;43157;50.982;18.132;2023-07-13T10:29:57;3.70;;;1.00;;
57317;SDS011;43157;50.982;18.132;2023-07-13T10:32:26;5.30;;;1.00;;
57317;SDS011;43157;50.982;18.132;2023-07-13T10:34:52;7.10;;;1.70;;
57317;SDS011;43157;50.982;18.132;2023-07-13T10:37:26;4.60;;;1.00;;
57317;SDS011;43157;50.982;18.132;2023-07-13T10:39:55;5.70;;;1.20;;
57317;SDS011;43157;50.982;18.132;2023-07-13T10:42:32;4.70;;;1.30;;
57317;SDS011;43157;50.982;18.132;2023-07-13T10:45:04;4.90;;;1.20;;
57317;SDS011;43157;50.982;18.132;2023-07-13T10:47:46;7.10;;;1.40;;
57317;SDS011;43157;50.982;18.132;2023-07-13T10:50:19;5.70;;;1.20;;
57317;SDS011;43157;50.982;18.132;2023-07-13T10:52:48;3.60;;;1.00;;
57317;SDS011;43157;50.982;18.132;2023-07-13T10:58:11;8.20;;;1.90;;
57317;SDS011;43157;50.982;18.132;2023-07-13T11:00:43;5.80;;;1.30;;
57317;SDS011;43157;50.982;18.132;2023-07-13T11:03:14;5.70;;;1.40;;
57317;SDS011;43157;50.982;18.132;2023-07-13T11:05:40;6.80;;;1.80;;
57317;SDS011;43157;50.982;18.132;2023-07-13T11:08:20;6.70;;;1.60;;
57317;SDS011;43157;50.982;18.132;2023-07-13T11:10:57;7.70;;;1.70;;
57317;SDS011;43157;50.982;18.132;2023-07-13T11:13:36;5.60;;;1.50;;
57317;SDS011;43157;50.982;18.132;2023-07-13T11:18:49;5.40;;;1.40;;
57317;SDS011;43157;50.982;18.132;2023-07-13T11:21:25;5.30;;;1.60;;
57317;SDS011;43157;50.982;18.132;2023-07-13T11:23:54;7.60;;;1.50;;
57317;SDS011;43157;50.982;18.132;2023-07-13T11:29:08;5.50;;;1.60;;
57317;SDS011;43157;50.982;18.132;2023-07-13T11:31:55;5.50;;;1.40;;
57317;SDS011;43157;50.982;18.132;2023-07-13T11:34:30;8.10;;;1.50;;
57317;SDS011;43157;50.982;18.132;2023-07-13T11:36:59;8.10;;;1.90;;
57317;SDS011;43157;50.982;18.132;2023-07-13T11:39:33;5.40;;;1.70;;
57317;SDS011;43157;50.982;18.132;2023-07-13T11:42:01;5.10;;;1.70;;
57317;SDS011;43157;50.982;18.132;2023-07-13T11:44:29;6.80;;;1.60;;
57317;SDS011;43157;50.982;18.132;2023-07-13T11:46:56;7.40;;;1.50;;
57317;SDS011;43157;50.982;18.132;2023-07-13T11:49:29;5.80;;;1.50;;
57317;SDS011;43157;50.982;18.132;2023-07-13T11:51:56;4.50;;;1.40;;
57317;SDS011;43157;50.982;18.132;2023-07-13T11:54:24;4.80;;;1.30;;
57317;SDS011;43157;50.982;18.132;2023-07-13T11:56:52;5.30;;;1.00;;
57317;SDS011;43157;50.982;18.132;2023-07-13T11:59:19;6.20;;;1.10;;
57317;SDS011;43157;50.982;18.132;2023-07-13T12:01:48;5.00;;;1.70;;
57317;SDS011;43157;50.982;18.132;2023-07-13T12:04:24;4.40;;;1.20;;
57317;SDS011;43157;50.982;18.132;2023-07-13T12:07:06;3.80;;;1.10;;
57317;SDS011;43157;50.982;18.132;2023-07-13T12:09:34;5.60;;;0.90;;
57317;SDS011;43157;50.982;18.132;2023-07-13T12:12:01;3.80;;;0.90;;
57317;SDS011;43157;50.982;18.132;2023-07-13T12:14:29;5.40;;;1.30;;
57317;SDS011;43157;50.982;18.132;2023-07-13T12:16:55;5.30;;;1.30;;
57317;SDS011;43157;50.982;18.132;2023-07-13T12:19:22;4.40;;;1.10;;
57317;SDS011;43157;50.982;18.132;2023-07-13T12:21:52;5.50;;;1.10;;
57317;SDS011;43157;50.982;18.132;2023-07-13T12:24:20;5.80;;;1.60;;
57317;SDS011;43157;50.982;18.132;2023-07-13T12:26:55;3.90;;;1.10;;
57317;SDS011;43157;50.982;18.132;2023-07-13T12:29:26;4.50;;;1.20;;
57317;SDS011;43157;50.982;18.132;2023-07-13T12:31:51;5.40;;;1.30;;
57317;SDS011;43157;50.982;18.132;2023-07-13T12:34:18;5.60;;;1.10;;
57317;SDS011;43157;50.982;18.132;2023-07-13T12:36:47;4.20;;;1.00;;
57317;SDS011;43157;50.982;18.132;2023-07-13T12:39:34;3.40;;;1.10;;
57317;SDS011;43157;50.982;18.132;2023-07-13T12:42:18;5.10;;;1.20;;
57317;SDS011;43157;50.982;18.132;2023-07-13T12:44:46;4.00;;;1.20;;
57317;SDS011;43157;50.982;18.132;2023-07-13T12:47:13;5.50;;;1.00;;
57317;SDS011;43157;50.982;18.132;2023-07-13T12:49:42;5.60;;;1.20;;
57317;SDS011;43157;50.982;18.132;2023-07-13T12:52:12;4.00;;;1.10;;
57317;SDS011;43157;50.982;18.132;2023-07-13T12:54:40;2.60;;;1.10;;
57317;SDS011;43157;50.982;18.132;2023-07-13T12:57:08;5.00;;;0.90;;
57317;SDS011;43157;50.982;18.132;2023-07-13T12:59:40;3.60;;;0.90;;
57317;SDS011;43157;50.982;18.132;2023-07-13T13:02:21;2.00;;;0.70;;
57317;SDS011;43157;50.982;18.132;2023-07-13T13:04:52;5.40;;;1.00;;
57317;SDS011;43157;50.982;18.132;2023-07-13T13:07:17;5.70;;;0.70;;
57317;SDS011;43157;50.982;18.132;2023-07-13T13:09:45;4.40;;;0.90;;
57317;SDS011;43157;50.982;18.132;2023-07-13T13:12:12;4.20;;;0.90;;
57317;SDS011;43157;50.982;18.132;2023-07-13T13:14:38;3.40;;;0.80;;
57317;SDS011;43157;50.982;18.132;2023-07-13T13:17:08;3.30;;;1.10;;
57317;SDS011;43157;50.982;18.132;2023-07-13T13:19:44;4.20;;;0.90;;
57317;SDS011;43157;50.982;18.132;2023-07-13T13:22:11;4.10;;;0.90;;
57317;SDS011;43157;50.982;18.132;2023-07-13T13:24:38;3.60;;;0.90;;
57317;SDS011;43157;50.982;18.132;2023-07-13T13:27:03;5.20;;;0.90;;
57317;SDS011;43157;50.982;18.132;2023-07-13T13:29:34;3.10;;;0.80;;
57317;SDS011;43157;50.982;18.132;2023-07-13T13:32:02;3.20;;;1.00;;
57317;SDS011;43157;50.982;18.132;2023-07-13T13:34:30;2.80;;;0.80;;
57317;SDS011;43157;50.982;18.132;2023-07-13T13:36:56;4.50;;;0.60;;
57317;SDS011;43157;50.982;18.132;2023-07-13T13:39:25;3.30;;;0.80;;
57317;SDS011;43157;50.982;18.132;2023-07-13T13:41:53;4.40;;;0.90;;
57317;SDS011;43157;50.982;18.132;2023-07-13T13:44:20;5.30;;;0.80;;
57317;SDS011;43157;50.982;18.132;2023-07-13T13:46:47;4.20;;;0.70;;
57317;SDS011;43157;50.982;18.132;2023-07-13T13:49:18;4.00;;;1.10;;
57317;SDS011;43157;50.982;18.132;2023-07-13T13:51:45;3.00;;;0.80;;
57317;SDS011;43157;50.982;18.132;2023-07-13T13:54:14;4.70;;;1.10;;
57317;SDS011;43157;50.982;18.132;2023-07-13T13:56:44;3.50;;;1.00;;
57317;SDS011;43157;50.982;18.132;2023-07-13T13:59:16;3.20;;;0.80;;
57317;SDS011;43157;50.982;18.132;2023-07-13T14:01:42;3.20;;;0.90;;
57317;SDS011;43157;50.982;18.132;2023-07-13T14:04:16;4.40;;;0.90;;
57317;SDS011;43157;50.982;18.132;2023-07-13T14:06:44;4.60;;;1.00;;
57317;SDS011;43157;50.982;18.132;2023-07-13T14:09:15;4.30;;;0.90;;
57317;SDS011;43157;50.982;18.132;2023-07-13T14:11:43;6.10;;;1.10;;
57317;SDS011;43157;50.982;18.132;2023-07-13T14:14:14;4.80;;;1.00;;
57317;SDS011;43157;50.982;18.132;2023-07-13T14:16:43;4.40;;;1.00;;
57317;SDS011;43157;50.982;18.132;2023-07-13T14:19:12;3.00;;;1.00;;
57317;SDS011;43157;50.982;18.132;2023-07-13T14:21:39;4.00;;;1.10;;
57317;SDS011;43157;50.982;18.132;2023-07-13T14:24:05;6.80;;;1.10;;
57317;SDS011;43157;50.982;18.132;2023-07-13T14:26:32;6.30;;;1.20;;
57317;SDS011;43157;50.982;18.132;2023-07-13T14:29:02;3.20;;;1.00;;
57317;SDS011;43157;50.982;18.132;2023-07-13T14:31:31;8.00;;;1.00;;
57317;SDS011;43157;50.982;18.132;2023-07-13T14:33:56;3.00;;;0.90;;
57317;SDS011;43157;50.982;18.132;2023-07-13T14:36:30;4.30;;;0.90;;
57317;SDS011;43157;50.982;18.132;2023-07-13T14:39:20;4.10;;;1.10;;
57317;SDS011;43157;50.982;18.132;2023-07-13T14:41:49;5.40;;;1.00;;
57317;SDS011;43157;50.982;18.132;2023-07-13T14:44:16;4.30;;;1.10;;
57317;SDS011;43157;50.982;18.132;2023-07-13T14:46:46;4.90;;;1.10;;
57317;SDS011;43157;50.982;18.132;2023-07-13T14:49:24;4.80;;;0.90;;
57317;SDS011;43157;50.982;18.132;2023-07-13T14:51:58;8.40;;;1.10;;
57317;SDS011;43157;50.982;18.132;2023-07-13T14:54:29;5.10;;;1.40;;
57317;SDS011;43157;50.982;18.132;2023-07-13T14:56:55;5.20;;;1.30;;
57317;SDS011;43157;50.982;18.132;2023-07-13T14:59:20;9.50;;;1.20;;
57317;SDS011;43157;50.982;18.132;2023-07-13T15:01:46;3.70;;;1.20;;
57317;SDS011;43157;50.982;18.132;2023-07-13T15:04:13;5.70;;;1.40;;
57317;SDS011;43157;50.982;18.132;2023-07-13T15:06:59;5.50;;;1.10;;
57317;SDS011;43157;50.982;18.132;2023-07-13T15:09:28;5.30;;;1.20;;
57317;SDS011;43157;50.982;18.132;2023-07-13T15:11:56;8.30;;;2.10;;
57317;SDS011;43157;50.982;18.132;2023-07-13T15:14:23;6.80;;;1.60;;
57317;SDS011;43157;50.982;18.132;2023-07-13T15:16:51;3.30;;;1.00;;
57317;SDS011;43157;50.982;18.132;2023-07-13T15:19:17;4.80;;;1.10;;